createdAt,value
2023-05-19T00:00:50.490Z,1001.95
2023-05-19T00:01:48.200Z,1001.88
2023-05-19T00:02:48.351Z,1001.95
2023-05-19T00:03:48.158Z,1001.94
2023-05-19T00:04:48.172Z,1001.94
2023-05-19T00:05:48.596Z,1001.89
2023-05-19T00:06:48.176Z,1001.93
2023-05-19T00:07:48.144Z,1001.93
2023-05-19T00:08:48.124Z,1001.88
2023-05-19T00:09:48.115Z,1001.92
2023-05-19T00:10:48.128Z,1001.97
2023-05-19T00:11:48.113Z,1001.94
2023-05-19T00:12:48.194Z,1001.89
2023-05-19T00:13:48.110Z,1001.92
2023-05-19T00:14:48.090Z,1001.94
2023-05-19T00:15:48.138Z,1001.91
2023-05-19T00:16:48.063Z,1001.95
2023-05-19T00:17:48.092Z,1001.95
2023-05-19T00:18:48.065Z,1001.92
2023-05-19T00:19:48.160Z,1001.95
2023-05-19T00:20:48.043Z,1001.85
2023-05-19T00:21:48.067Z,1001.90
2023-05-19T00:22:48.038Z,1001.98
2023-05-19T00:23:48.017Z,1001.97
2023-05-19T00:24:48.012Z,1001.98
2023-05-19T00:25:48.015Z,1001.93
2023-05-19T00:26:48.004Z,1001.93
2023-05-19T00:27:47.999Z,1001.94
2023-05-19T00:28:47.975Z,1001.93
2023-05-19T00:29:47.997Z,1001.89
2023-05-19T00:30:47.963Z,1001.89
2023-05-19T00:31:48.017Z,1001.89
2023-05-19T00:32:48.003Z,1001.88
2023-05-19T00:33:47.948Z,1001.88
2023-05-19T00:34:47.956Z,1001.83
2023-05-19T00:35:48.108Z,1001.87
2023-05-19T00:36:47.934Z,1001.81
2023-05-19T00:37:47.922Z,1001.89
2023-05-19T00:38:47.912Z,1001.85
2023-05-19T00:39:47.912Z,1001.82
2023-05-19T00:40:47.935Z,1001.82
2023-05-19T00:41:47.895Z,1001.79
2023-05-19T00:42:47.901Z,1001.84
2023-05-19T00:43:47.874Z,1001.81
2023-05-19T00:44:47.876Z,1001.87
2023-05-19T00:45:47.862Z,1001.79
2023-05-19T00:46:47.946Z,1001.90
2023-05-19T00:47:47.872Z,1001.83
2023-05-19T00:48:47.845Z,1001.76
2023-05-19T00:49:47.840Z,1001.79
2023-05-19T00:50:47.846Z,1001.77
2023-05-19T00:51:47.848Z,1001.81
2023-05-19T00:52:47.814Z,1001.77
2023-05-19T00:53:47.803Z,1001.72
2023-05-19T00:54:47.810Z,1001.72
2023-05-19T00:55:47.800Z,1001.74
2023-05-19T00:56:47.801Z,1001.74
2023-05-19T00:57:47.791Z,1001.75
2023-05-19T00:58:47.783Z,1001.75
2023-05-19T00:59:47.764Z,1001.73
2023-05-19T01:00:47.758Z,1001.73
2023-05-19T01:01:47.747Z,1001.70
2023-05-19T01:02:47.845Z,1001.68
2023-05-19T01:03:47.808Z,1001.75
2023-05-19T01:04:47.734Z,1001.77
2023-05-19T01:05:47.713Z,1001.75
2023-05-19T01:06:47.720Z,1001.71
2023-05-19T01:07:47.721Z,1001.72
2023-05-19T01:08:47.717Z,1001.72
2023-05-19T01:09:47.692Z,1001.70
2023-05-19T01:10:47.686Z,1001.70
2023-05-19T01:11:47.681Z,1001.73
2023-05-19T01:12:47.664Z,1001.72
2023-05-19T01:13:47.690Z,1001.68
2023-05-19T01:14:47.662Z,1001.70
2023-05-19T01:15:47.649Z,1001.72
2023-05-19T01:16:47.717Z,1001.71
2023-05-19T01:17:47.700Z,1001.69
2023-05-19T01:18:47.724Z,1001.67
2023-05-19T01:19:47.622Z,1001.66
2023-05-19T01:20:47.616Z,1001.68
2023-05-19T01:21:47.609Z,1001.63
2023-05-19T01:22:47.622Z,1001.64
2023-05-19T01:23:48.593Z,1001.64
2023-05-19T01:24:47.583Z,1001.65
2023-05-19T01:25:47.576Z,1001.63
2023-05-19T01:26:47.575Z,1001.59
2023-05-19T01:27:47.617Z,1001.60
2023-05-19T01:28:48.556Z,1001.63
2023-05-19T01:29:47.557Z,1001.55
2023-05-19T01:30:47.557Z,1001.58
2023-05-19T01:31:47.588Z,1001.64
2023-05-19T01:32:47.559Z,1001.59
2023-05-19T01:33:47.555Z,1001.55
2023-05-19T01:34:47.533Z,1001.63
2023-05-19T01:35:47.520Z,1001.55
2023-05-19T01:36:47.513Z,1001.63
2023-05-19T01:37:47.497Z,1001.57
2023-05-19T01:38:47.517Z,1001.58
2023-05-19T01:39:47.513Z,1001.57
2023-05-19T01:40:47.484Z,1001.56
2023-05-19T01:41:47.494Z,1001.58
2023-05-19T01:42:47.467Z,1001.56
2023-05-19T01:43:48.537Z,1001.63
2023-05-19T01:44:47.465Z,1001.55
2023-05-19T01:45:47.473Z,1001.54
2023-05-19T01:46:47.519Z,1001.55
2023-05-19T01:47:47.496Z,1001.55
2023-05-19T01:48:47.436Z,1001.51
2023-05-19T01:49:47.451Z,1001.62
2023-05-19T01:50:47.417Z,1001.58
2023-05-19T01:51:47.419Z,1001.57
2023-05-19T01:52:47.418Z,1001.59
2023-05-19T01:53:47.398Z,1001.59
2023-05-19T01:54:47.412Z,1001.57
2023-05-19T01:55:47.391Z,1001.55
2023-05-19T01:56:47.398Z,1001.63
2023-05-19T01:57:47.378Z,1001.59
2023-05-19T01:58:47.387Z,1001.62
2023-05-19T01:59:47.374Z,1001.60
2023-05-19T02:00:47.377Z,1001.64
2023-05-19T02:01:47.418Z,1001.59
2023-05-19T02:02:47.384Z,1001.60
2023-05-19T02:03:47.329Z,1001.61
2023-05-19T02:04:47.348Z,1001.66
2023-05-19T02:05:47.328Z,1001.63
2023-05-19T02:06:47.318Z,1001.66
2023-05-19T02:07:47.303Z,1001.65
2023-05-19T02:08:47.304Z,1001.61
2023-05-19T02:09:47.280Z,1001.69
2023-05-19T02:10:47.293Z,1001.72
2023-05-19T02:11:47.278Z,1001.71
2023-05-19T02:12:47.258Z,1001.70
2023-05-19T02:13:48.272Z,1001.71
2023-05-19T02:14:47.256Z,1001.75
2023-05-19T02:15:47.298Z,1001.74
2023-05-19T02:16:47.250Z,1001.70
2023-05-19T02:17:47.348Z,1001.69
2023-05-19T02:18:47.285Z,1001.73
2023-05-19T02:19:47.238Z,1001.74
2023-05-19T02:20:47.230Z,1001.75
2023-05-19T02:21:47.209Z,1001.74
2023-05-19T02:22:47.197Z,1001.75
2023-05-19T02:23:47.189Z,1001.73
2023-05-19T02:24:47.179Z,1001.73
2023-05-19T02:25:47.170Z,1001.69
2023-05-19T02:26:47.198Z,1001.71
2023-05-19T02:27:47.167Z,1001.72
2023-05-19T02:28:47.160Z,1001.68
2023-05-19T02:29:47.150Z,1001.71
2023-05-19T02:30:47.149Z,1001.71
2023-05-19T02:31:47.175Z,1001.68
2023-05-19T02:32:47.287Z,1001.74
2023-05-19T02:33:47.121Z,1001.65
2023-05-19T02:34:47.119Z,1001.61
2023-05-19T02:35:47.106Z,1001.72
2023-05-19T02:36:47.115Z,1001.71
2023-05-19T02:37:47.110Z,1001.70
2023-05-19T02:38:47.084Z,1001.73
2023-05-19T02:39:47.101Z,1001.70
2023-05-19T02:40:47.086Z,1001.69
2023-05-19T02:41:47.071Z,1001.72
2023-05-19T02:42:47.085Z,1001.71
2023-05-19T02:43:47.050Z,1001.66
2023-05-19T02:44:47.049Z,1001.66
2023-05-19T02:45:47.048Z,1001.71
2023-05-19T02:46:47.170Z,1001.69
2023-05-19T02:47:47.069Z,1001.67
2023-05-19T02:48:47.026Z,1001.62
2023-05-19T02:49:47.009Z,1001.61
2023-05-19T02:50:48.001Z,1001.64
2023-05-19T02:51:47.007Z,1001.57
2023-05-19T02:52:46.987Z,1001.61
2023-05-19T02:53:46.978Z,1001.56
2023-05-19T02:54:46.971Z,1001.58
2023-05-19T02:55:46.983Z,1001.62
2023-05-19T02:56:46.965Z,1001.58
2023-05-19T02:57:46.953Z,1001.54
2023-05-19T02:58:46.950Z,1001.61
2023-05-19T02:59:46.949Z,1001.56
2023-05-19T03:00:46.957Z,1001.53
2023-05-19T03:01:46.944Z,1001.56
2023-05-19T03:02:47.006Z,1001.60
2023-05-19T03:03:47.049Z,1001.60
2023-05-19T03:04:46.905Z,1001.57
2023-05-19T03:05:46.906Z,1001.57
2023-05-19T03:06:46.915Z,1001.60
2023-05-19T03:07:46.885Z,1001.56
2023-05-19T03:08:46.885Z,1001.55
2023-05-19T03:09:46.869Z,1001.55
2023-05-19T03:10:46.867Z,1001.57
2023-05-19T03:11:46.868Z,1001.60
2023-05-19T03:12:46.860Z,1001.60
2023-05-19T03:13:46.855Z,1001.62
2023-05-19T03:14:46.850Z,1001.57
2023-05-19T03:15:46.836Z,1001.55
2023-05-19T03:16:46.985Z,1001.57
2023-05-19T03:17:46.932Z,1001.57
2023-05-19T03:18:46.852Z,1001.57
2023-05-19T03:19:46.810Z,1001.58
2023-05-19T03:20:46.793Z,1001.60
2023-05-19T03:21:46.820Z,1001.58
2023-05-19T03:22:46.794Z,1001.63
2023-05-19T03:23:46.779Z,1001.63
2023-05-19T03:24:46.783Z,1001.58
2023-05-19T03:25:46.778Z,1001.65
2023-05-19T03:26:46.777Z,1001.58
2023-05-19T03:27:46.759Z,1001.61
2023-05-19T03:28:46.751Z,1001.63
2023-05-19T03:29:46.751Z,1001.62
2023-05-19T03:30:46.732Z,1001.58
2023-05-19T03:31:46.726Z,1001.61
2023-05-19T03:32:46.824Z,1001.58
2023-05-19T03:33:46.708Z,1001.58
2023-05-19T03:34:46.704Z,1001.58
2023-05-19T03:35:46.742Z,1001.57
2023-05-19T03:36:46.701Z,1001.60
2023-05-19T03:37:46.708Z,1001.66
2023-05-19T03:38:46.690Z,1001.60
2023-05-19T03:39:46.698Z,1001.55
2023-05-19T03:40:46.695Z,1001.66
2023-05-19T03:41:46.688Z,1001.64
2023-05-19T03:42:46.657Z,1001.67
2023-05-19T03:43:46.653Z,1001.67
2023-05-19T03:44:46.641Z,1001.73
2023-05-19T03:45:46.694Z,1001.66
2023-05-19T03:46:46.640Z,1001.66
2023-05-19T03:47:46.796Z,1001.70
2023-05-19T03:48:46.617Z,1001.70
2023-05-19T03:49:46.611Z,1001.70
2023-05-19T03:50:46.605Z,1001.69
2023-05-19T03:51:46.772Z,1001.68
2023-05-19T03:52:46.654Z,1001.68
2023-05-19T03:53:46.589Z,1001.69
2023-05-19T03:54:46.613Z,1001.70
2023-05-19T03:55:46.571Z,1001.65
2023-05-19T03:56:46.573Z,1001.66
2023-05-19T03:57:46.565Z,1001.61
2023-05-19T03:58:46.548Z,1001.63
2023-05-19T03:59:46.701Z,1001.66
2023-05-19T04:00:46.540Z,1001.67
2023-05-19T04:01:46.534Z,1001.61
2023-05-19T04:02:46.625Z,1001.69
2023-05-19T04:03:46.651Z,1001.64
2023-05-19T04:04:46.609Z,1001.66
2023-05-19T04:05:46.569Z,1001.65
2023-05-19T04:06:46.505Z,1001.69
2023-05-19T04:07:46.507Z,1001.68
2023-05-19T04:08:46.495Z,1001.66
2023-05-19T04:09:46.506Z,1001.65
2023-05-19T04:10:46.498Z,1001.67
2023-05-19T04:11:46.475Z,1001.64
2023-05-19T04:12:46.458Z,1001.66
2023-05-19T04:13:46.459Z,1001.62
2023-05-19T04:14:46.482Z,1001.63
2023-05-19T04:15:46.481Z,1001.64
2023-05-19T04:16:46.440Z,1001.66
2023-05-19T04:17:46.496Z,1001.65
2023-05-19T04:18:46.657Z,1001.65
2023-05-19T04:19:46.436Z,1001.70
2023-05-19T04:20:46.429Z,1001.67
2023-05-19T04:21:46.417Z,1001.66
2023-05-19T04:22:46.405Z,1001.69
2023-05-19T04:23:46.439Z,1001.72
2023-05-19T04:24:46.387Z,1001.74
2023-05-19T04:25:46.391Z,1001.70
2023-05-19T04:26:46.382Z,1001.74
2023-05-19T04:27:46.371Z,1001.67
2023-05-19T04:28:46.372Z,1001.70
2023-05-19T04:29:46.360Z,1001.76
2023-05-19T04:30:46.463Z,1001.73
2023-05-19T04:31:46.388Z,1001.67
2023-05-19T04:32:46.361Z,1001.68
2023-05-19T04:33:46.336Z,1001.63
2023-05-19T04:34:46.360Z,1001.67
2023-05-19T04:35:46.346Z,1001.66
2023-05-19T04:36:46.321Z,1001.67
2023-05-19T04:37:46.316Z,1001.74
2023-05-19T04:38:46.303Z,1001.74
2023-05-19T04:39:46.293Z,1001.76
2023-05-19T04:40:46.312Z,1001.72
2023-05-19T04:41:46.276Z,1001.79
2023-05-19T04:42:46.295Z,1001.77
2023-05-19T04:43:46.276Z,1001.72
2023-05-19T04:44:46.277Z,1001.77
2023-05-19T04:45:46.252Z,1001.80
2023-05-19T04:46:46.286Z,1001.78
2023-05-19T04:47:46.279Z,1001.78
2023-05-19T04:48:46.233Z,1001.76
2023-05-19T04:49:46.223Z,1001.75
2023-05-19T04:50:46.216Z,1001.83
2023-05-19T04:51:46.256Z,1001.84
2023-05-19T04:52:46.221Z,1001.88
2023-05-19T04:53:46.214Z,1001.84
2023-05-19T04:54:46.200Z,1001.92
2023-05-19T04:55:46.199Z,1001.88
2023-05-19T04:56:46.194Z,1001.93
2023-05-19T04:57:46.199Z,1001.94
2023-05-19T04:58:46.189Z,1001.92
2023-05-19T04:59:46.168Z,1001.95
2023-05-19T05:00:46.156Z,1001.90
2023-05-19T05:01:46.214Z,1001.88
2023-05-19T05:02:46.259Z,1001.87
2023-05-19T05:03:46.245Z,1001.90
2023-05-19T05:04:46.125Z,1001.89
2023-05-19T05:05:46.132Z,1001.94
2023-05-19T05:06:46.109Z,1001.87
2023-05-19T05:07:46.117Z,1001.92
2023-05-19T05:08:46.127Z,1001.92
2023-05-19T05:09:46.100Z,1001.97
2023-05-19T05:10:46.090Z,1001.93
2023-05-19T05:11:46.092Z,1001.90
2023-05-19T05:12:46.084Z,1001.92
2023-05-19T05:13:46.076Z,1001.91
2023-05-19T05:14:46.117Z,1001.92
2023-05-19T05:15:46.055Z,1001.88
2023-05-19T05:16:46.120Z,1001.84
2023-05-19T05:17:46.071Z,1001.86
2023-05-19T05:18:46.061Z,1001.91
2023-05-19T05:19:46.051Z,1001.94
2023-05-19T05:20:46.019Z,1001.80
2023-05-19T05:21:46.019Z,1001.84
2023-05-19T05:22:46.008Z,1001.85
2023-05-19T05:23:46.017Z,1001.89
2023-05-19T05:24:46.006Z,1001.91
2023-05-19T05:25:45.989Z,1001.91
2023-05-19T05:26:45.989Z,1001.88
2023-05-19T05:27:45.975Z,1001.89
2023-05-19T05:28:45.972Z,1001.94
2023-05-19T05:29:45.957Z,1001.90
2023-05-19T05:30:46.005Z,1001.94
2023-05-19T05:31:45.953Z,1001.95
2023-05-19T05:32:45.996Z,1001.98
2023-05-19T05:33:45.998Z,1001.96
2023-05-19T05:34:45.952Z,1001.95
2023-05-19T05:35:45.932Z,1001.98
2023-05-19T05:36:45.909Z,1001.92
2023-05-19T05:37:45.924Z,1001.91
2023-05-19T05:38:45.906Z,1001.89
2023-05-19T05:39:45.900Z,1001.84
2023-05-19T05:40:45.889Z,1001.78
2023-05-19T05:41:45.878Z,1001.84
2023-05-19T05:42:45.882Z,1001.77
2023-05-19T05:43:45.881Z,1001.81
2023-05-19T05:44:45.854Z,1001.79
2023-05-19T05:45:45.863Z,1001.75
2023-05-19T05:46:45.858Z,1001.77
2023-05-19T05:47:45.916Z,1001.72
2023-05-19T05:48:45.836Z,1001.74
2023-05-19T05:49:45.819Z,1001.67
2023-05-19T05:50:45.849Z,1001.77
2023-05-19T05:51:54.712Z,1001.73
2023-05-19T05:52:47.812Z,1001.69
2023-05-19T05:53:45.804Z,1001.75
2023-05-19T05:54:45.791Z,1001.70
2023-05-19T05:55:45.804Z,1001.71
2023-05-19T05:56:45.785Z,1001.72
2023-05-19T05:57:45.774Z,1001.73
2023-05-19T05:58:45.793Z,1001.67
2023-05-19T05:59:45.769Z,1001.74
2023-05-19T06:00:45.778Z,1001.69
2023-05-19T06:01:45.756Z,1001.73
2023-05-19T06:02:45.848Z,1001.75
2023-05-19T06:03:46.002Z,1001.73
2023-05-19T06:04:45.723Z,1001.72
2023-05-19T06:05:45.814Z,1001.71
2023-05-19T06:06:45.723Z,1001.75
2023-05-19T06:07:45.712Z,1001.69
2023-05-19T06:08:45.730Z,1001.72
2023-05-19T06:09:45.684Z,1001.72
2023-05-19T06:10:47.376Z,1001.68
2023-05-19T06:11:46.702Z,1001.68
2023-05-19T06:12:45.683Z,1001.66
2023-05-19T06:13:46.475Z,1001.67
2023-05-19T06:14:45.709Z,1001.64
2023-05-19T06:15:45.914Z,1001.61
2023-05-19T06:16:45.675Z,1001.57
2023-05-19T06:17:45.689Z,1001.57
2023-05-19T06:18:45.886Z,1001.50
2023-05-19T06:19:45.623Z,1001.50
2023-05-19T06:20:45.625Z,1001.45
2023-05-19T06:21:45.627Z,1001.45
2023-05-19T06:22:45.605Z,1001.48
2023-05-19T06:23:45.628Z,1001.50
2023-05-19T06:24:45.617Z,1001.48
2023-05-19T06:25:46.488Z,1001.56
2023-05-19T06:26:45.616Z,1001.52
2023-05-19T06:27:45.584Z,1001.49
2023-05-19T06:28:46.475Z,1001.50
2023-05-19T06:29:45.581Z,1001.53
2023-05-19T06:30:45.550Z,1001.55
2023-05-19T06:31:45.570Z,1001.52
2023-05-19T06:32:45.613Z,1001.52
2023-05-19T06:33:45.552Z,1001.54
2023-05-19T06:34:45.537Z,1001.48
2023-05-19T06:35:45.557Z,1001.50
2023-05-19T06:36:45.521Z,1001.47
2023-05-19T06:37:45.516Z,1001.47
2023-05-19T06:38:45.521Z,1001.51
2023-05-19T06:39:45.490Z,1001.51
2023-05-19T06:40:45.514Z,1001.45
2023-05-19T06:41:45.473Z,1001.41
2023-05-19T06:42:45.491Z,1001.47
2023-05-19T06:43:45.494Z,1001.48
2023-05-19T06:44:45.477Z,1001.46
2023-05-19T06:45:45.449Z,1001.40
2023-05-19T06:46:45.524Z,1001.42
2023-05-19T06:47:45.502Z,1001.48
2023-05-19T06:48:45.445Z,1001.42
2023-05-19T06:49:45.431Z,1001.42
2023-05-19T06:50:46.437Z,1001.44
2023-05-19T06:51:45.427Z,1001.35
2023-05-19T06:52:45.415Z,1001.38
2023-05-19T06:53:45.417Z,1001.36
2023-05-19T06:54:45.413Z,1001.38
2023-05-19T06:55:57.899Z,1001.36
2023-05-19T06:56:47.378Z,1001.32
2023-05-19T06:57:45.375Z,1001.30
2023-05-19T06:58:45.396Z,1001.27
2023-05-19T06:59:45.361Z,1001.25
2023-05-19T07:00:45.349Z,1001.31
2023-05-19T07:01:45.391Z,1001.24
2023-05-19T07:02:45.393Z,1001.24
2023-05-19T07:03:45.398Z,1001.22
2023-05-19T07:04:45.321Z,1001.24
2023-05-19T07:05:45.328Z,1001.27
2023-05-19T07:06:45.332Z,1001.28
2023-05-19T07:07:45.301Z,1001.20
2023-05-19T07:08:45.311Z,1001.23
2023-05-19T07:09:45.289Z,1001.19
2023-05-19T07:10:45.300Z,1001.19
2023-05-19T07:11:45.269Z,1001.22
2023-05-19T07:12:46.280Z,1001.21
2023-05-19T07:13:45.280Z,1001.17
2023-05-19T07:14:45.268Z,1001.18
2023-05-19T07:15:45.282Z,1001.12
2023-05-19T07:16:45.302Z,1001.12
2023-05-19T07:17:45.296Z,1001.13
2023-05-19T07:18:45.258Z,1001.12
2023-05-19T07:19:45.252Z,1001.10
2023-05-19T07:20:45.232Z,1001.03
2023-05-19T07:21:45.213Z,1001.04
2023-05-19T07:22:45.220Z,1001.08
2023-05-19T07:23:45.202Z,1001.05
2023-05-19T07:24:45.218Z,1001.02
2023-05-19T07:25:45.201Z,1001.03
2023-05-19T07:26:45.173Z,1001.05
2023-05-19T07:27:46.169Z,1001.07
2023-05-19T07:28:45.186Z,1001.03
2023-05-19T07:29:45.161Z,1001.01
2023-05-19T07:30:45.181Z,1001.00
2023-05-19T07:31:45.149Z,1000.97
2023-05-19T07:32:45.217Z,1000.97
2023-05-19T07:33:45.140Z,1000.99
2023-05-19T07:34:45.122Z,1000.99
2023-05-19T07:35:45.137Z,1000.97
2023-05-19T07:36:45.112Z,1000.95
2023-05-19T07:37:45.107Z,1000.98
2023-05-19T07:38:45.137Z,1000.96
2023-05-19T07:39:45.104Z,1000.91
2023-05-19T07:40:45.084Z,1000.94
2023-05-19T07:41:45.094Z,1000.94
2023-05-19T07:42:45.083Z,1000.86
2023-05-19T07:43:45.071Z,1000.92
2023-05-19T07:44:45.058Z,1000.90
2023-05-19T07:45:45.063Z,1000.88
2023-05-19T07:46:45.050Z,1000.89
2023-05-19T07:47:45.046Z,1000.85
2023-05-19T07:48:45.037Z,1000.85
2023-05-19T07:49:45.031Z,1000.88
2023-05-19T07:50:45.010Z,1000.85
2023-05-19T07:51:45.018Z,1000.81
2023-05-19T07:52:44.999Z,1000.81
2023-05-19T07:53:45.004Z,1000.79
2023-05-19T07:54:45.005Z,1000.79
2023-05-19T07:55:44.995Z,1000.79
2023-05-19T07:56:44.969Z,1000.78
2023-05-19T07:57:44.987Z,1000.80
2023-05-19T07:58:45.957Z,1000.75
2023-05-19T07:59:44.974Z,1000.71
2023-05-19T08:00:44.949Z,1000.71
2023-05-19T08:01:44.942Z,1000.75
2023-05-19T08:02:45.044Z,1000.73
2023-05-19T08:03:45.002Z,1000.74
2023-05-19T08:04:44.982Z,1000.82
2023-05-19T08:05:44.932Z,1000.71
2023-05-19T08:06:44.909Z,1000.67
2023-05-19T08:07:44.907Z,1000.65
2023-05-19T08:08:44.893Z,1000.60
2023-05-19T08:09:44.878Z,1000.65
2023-05-19T08:10:44.911Z,1000.71
2023-05-19T08:11:44.888Z,1000.61
2023-05-19T08:12:44.857Z,1000.53
2023-05-19T08:13:44.858Z,1000.57
2023-05-19T08:14:44.864Z,1000.63
2023-05-19T08:15:44.944Z,1000.67
2023-05-19T08:16:44.850Z,1000.62
2023-05-19T08:17:44.868Z,1000.60
2023-05-19T08:18:44.891Z,1000.58
2023-05-19T08:19:44.820Z,1000.61
2023-05-19T08:20:44.816Z,1000.64
2023-05-19T08:21:44.843Z,1000.59
2023-05-19T08:22:44.806Z,1000.59
2023-05-19T08:23:44.804Z,1000.63
2023-05-19T08:24:44.837Z,1000.64
2023-05-19T08:25:44.794Z,1000.62
2023-05-19T08:26:44.854Z,1000.63
2023-05-19T08:27:44.773Z,1000.65
2023-05-19T08:28:44.768Z,1000.62
2023-05-19T08:29:44.753Z,1000.66
2023-05-19T08:30:44.768Z,1000.70
2023-05-19T08:31:44.776Z,1000.61
2023-05-19T08:32:44.752Z,1000.63
2023-05-19T08:33:44.727Z,1000.64
2023-05-19T08:34:44.751Z,1000.58
2023-05-19T08:35:44.757Z,1000.53
2023-05-19T08:36:44.715Z,1000.44
2023-05-19T08:37:44.744Z,1000.46
2023-05-19T08:38:44.698Z,1000.50
2023-05-19T08:39:44.689Z,1000.39
2023-05-19T08:40:44.697Z,1000.47
2023-05-19T08:41:44.679Z,1000.39
2023-05-19T08:42:44.700Z,1000.46
2023-05-19T08:43:44.676Z,1000.43
2023-05-19T08:44:44.657Z,1000.45
2023-05-19T08:45:44.657Z,1000.36
2023-05-19T08:46:44.743Z,1000.42
2023-05-19T08:47:44.684Z,1000.46
2023-05-19T08:48:44.640Z,1000.45
2023-05-19T08:49:44.654Z,1000.40
2023-05-19T08:50:44.628Z,1000.40
2023-05-19T08:51:44.616Z,1000.36
2023-05-19T08:52:46.829Z,1000.35
2023-05-19T08:53:44.607Z,1000.20
2023-05-19T08:54:44.629Z,1000.37
2023-05-19T08:55:44.595Z,1000.30
2023-05-19T08:56:44.623Z,1000.28
2023-05-19T08:57:44.568Z,1000.19
2023-05-19T08:58:44.569Z,1000.21
2023-05-19T08:59:44.586Z,1000.13
2023-05-19T09:00:44.576Z,1000.14
2023-05-19T09:01:44.572Z,1000.22
2023-05-19T09:02:55.034Z,1000.20
2023-05-19T09:03:46.643Z,1000.16
2023-05-19T09:04:44.640Z,1000.16
2023-05-19T09:05:44.602Z,1000.12
2023-05-19T09:06:44.539Z,1000.21
2023-05-19T09:07:44.524Z,1000.09
2023-05-19T09:08:44.516Z,1000.11
2023-05-19T09:09:44.958Z,1000.12
2023-05-19T09:10:44.512Z,1000.16
2023-05-19T09:11:44.498Z,1000.12
2023-05-19T09:12:44.484Z,1000.11
2023-05-19T09:13:44.483Z,1000.13
2023-05-19T09:14:44.475Z,1000.16
2023-05-19T09:15:44.480Z,1000.10
2023-05-19T09:16:44.504Z,1000.05
2023-05-19T09:17:44.552Z,1000.00
2023-05-19T09:18:44.507Z,1000.03
2023-05-19T09:19:44.448Z,1000.02
2023-05-19T09:20:44.462Z,1000.00
2023-05-19T09:21:44.690Z,1000.05
2023-05-19T09:22:45.434Z,999.98
2023-05-19T09:23:44.420Z,1000.01
2023-05-19T09:24:44.414Z,1000.08
2023-05-19T09:25:44.416Z,1000.04
2023-05-19T09:26:44.400Z,1000.04
2023-05-19T09:27:45.404Z,1000.06
2023-05-19T09:28:44.394Z,1000.15
2023-05-19T09:29:44.404Z,1000.18
2023-05-19T09:30:44.377Z,1000.19
2023-05-19T09:31:44.428Z,1000.12
2023-05-19T09:32:44.731Z,1000.05
2023-05-19T09:33:46.012Z,999.99
2023-05-19T09:34:45.346Z,1000.10
2023-05-19T09:35:44.366Z,1000.22
2023-05-19T09:36:44.358Z,999.96
2023-05-19T09:37:44.327Z,999.91
2023-05-19T09:38:44.342Z,1000.12
2023-05-19T09:39:44.349Z,1000.04
2023-05-19T09:40:44.318Z,1000.08
2023-05-19T09:41:44.338Z,1000.04
2023-05-19T09:42:44.325Z,1000.03
2023-05-19T09:43:44.313Z,999.87
2023-05-19T09:44:44.299Z,999.89
2023-05-19T09:45:44.334Z,999.86
2023-05-19T09:46:44.515Z,999.92
2023-05-19T09:47:44.330Z,999.94
2023-05-19T09:48:44.270Z,999.92
2023-05-19T09:49:44.263Z,999.95
2023-05-19T09:50:44.260Z,999.92
2023-05-19T09:51:44.253Z,999.92
2023-05-19T09:52:44.255Z,999.90
2023-05-19T09:53:44.221Z,999.92
2023-05-19T09:54:44.263Z,1000.13
2023-05-19T09:55:44.240Z,1000.08
2023-05-19T09:56:44.214Z,999.93
2023-05-19T09:57:44.314Z,999.96
2023-05-19T09:58:44.206Z,999.93
2023-05-19T09:59:44.214Z,999.93
2023-05-19T10:00:44.215Z,999.90
2023-05-19T10:01:44.292Z,999.91
2023-05-19T10:02:44.343Z,1000.08
2023-05-19T10:03:44.185Z,1000.05
2023-05-19T10:04:44.252Z,1000.05
2023-05-19T10:05:44.164Z,999.99
2023-05-19T10:06:44.165Z,1000.00
2023-05-19T10:07:44.144Z,999.95
2023-05-19T10:08:44.176Z,999.93
2023-05-19T10:09:44.150Z,999.97
2023-05-19T10:10:44.146Z,999.98
2023-05-19T10:11:44.151Z,999.96
2023-05-19T10:12:44.121Z,999.98
2023-05-19T10:13:44.116Z,999.91
2023-05-19T10:14:44.105Z,1000.00
2023-05-19T10:15:57.337Z,1000.03
2023-05-19T10:16:46.112Z,999.92
2023-05-19T10:17:44.132Z,999.94
2023-05-19T10:18:44.105Z,999.70
2023-05-19T10:19:44.069Z,999.78
2023-05-19T10:20:44.069Z,999.74
2023-05-19T10:21:44.066Z,999.84
2023-05-19T10:22:44.074Z,999.91
2023-05-19T10:23:44.081Z,999.86
2023-05-19T10:24:44.044Z,999.80
2023-05-19T10:25:44.038Z,999.71
2023-05-19T10:26:44.033Z,999.75
2023-05-19T10:27:44.084Z,999.72
2023-05-19T10:28:44.053Z,999.85
2023-05-19T10:29:44.016Z,999.77
2023-05-19T10:30:44.002Z,999.75
2023-05-19T10:31:45.013Z,999.62
2023-05-19T10:32:44.066Z,999.58
2023-05-19T10:33:44.017Z,999.58
2023-05-19T10:34:43.999Z,999.60
2023-05-19T10:35:45.202Z,999.68
2023-05-19T10:36:43.958Z,999.55
2023-05-19T10:37:44.000Z,999.68
2023-05-19T10:38:43.975Z,999.70
2023-05-19T10:39:43.964Z,999.63
2023-05-19T10:40:43.936Z,999.54
2023-05-19T10:41:45.015Z,999.60
2023-05-19T10:42:43.924Z,999.63
2023-05-19T10:43:43.926Z,999.66
2023-05-19T10:44:43.930Z,999.70
2023-05-19T10:45:43.920Z,999.57
2023-05-19T10:46:43.955Z,999.44
2023-05-19T10:47:43.918Z,999.53
2023-05-19T10:48:43.894Z,999.46
2023-05-19T10:49:43.893Z,999.40
2023-05-19T10:50:43.892Z,999.59
2023-05-19T10:51:43.875Z,999.57
2023-05-19T10:52:43.865Z,999.55
2023-05-19T10:53:43.855Z,999.59
2023-05-19T10:54:43.871Z,999.46
2023-05-19T10:55:43.859Z,999.47
2023-05-19T10:56:43.844Z,999.53
2023-05-19T10:57:43.841Z,999.46
2023-05-19T10:58:43.842Z,999.41
2023-05-19T10:59:43.841Z,999.44
2023-05-19T11:00:43.832Z,999.39
2023-05-19T11:01:43.842Z,999.32
2023-05-19T11:02:43.909Z,999.36
2023-05-19T11:03:43.836Z,999.29
2023-05-19T11:04:43.830Z,999.33
2023-05-19T11:05:43.805Z,999.35
2023-05-19T11:06:43.811Z,999.20
2023-05-19T11:07:43.772Z,999.33
2023-05-19T11:08:43.766Z,999.26
2023-05-19T11:09:43.774Z,999.27
2023-05-19T11:10:43.773Z,999.36
2023-05-19T11:11:43.809Z,999.24
2023-05-19T11:12:43.762Z,999.31
2023-05-19T11:13:43.822Z,999.28
2023-05-19T11:14:43.750Z,999.31
2023-05-19T11:15:43.732Z,999.30
2023-05-19T11:16:43.764Z,999.28
2023-05-19T11:17:43.726Z,999.40
2023-05-19T11:18:43.791Z,999.35
2023-05-19T11:19:43.720Z,999.32
2023-05-19T11:20:43.734Z,999.28
2023-05-19T11:21:43.722Z,999.32
2023-05-19T11:22:43.689Z,999.28
2023-05-19T11:23:43.717Z,999.25
2023-05-19T11:24:43.753Z,999.24
2023-05-19T11:25:43.681Z,999.26
2023-05-19T11:26:43.678Z,999.26
2023-05-19T11:27:43.680Z,999.23
2023-05-19T11:28:43.656Z,999.22
2023-05-19T11:29:43.645Z,999.29
2023-05-19T11:30:43.640Z,999.18
2023-05-19T11:31:43.702Z,999.17
2023-05-19T11:32:43.662Z,999.27
2023-05-19T11:33:43.624Z,999.18
2023-05-19T11:34:43.615Z,999.16
2023-05-19T11:35:43.602Z,999.25
2023-05-19T11:36:43.603Z,999.25
2023-05-19T11:37:43.629Z,999.16
2023-05-19T11:38:43.596Z,999.16
2023-05-19T11:39:43.594Z,999.16
2023-05-19T11:40:43.581Z,999.17
2023-05-19T11:41:43.597Z,999.15
2023-05-19T11:42:43.569Z,999.18
2023-05-19T11:43:43.596Z,999.14
2023-05-19T11:44:43.568Z,999.15
2023-05-19T11:45:43.592Z,999.22
2023-05-19T11:46:43.617Z,999.13
2023-05-19T11:48:00.114Z,999.14
2023-05-19T11:48:45.610Z,999.20
2023-05-19T11:49:43.529Z,999.17
2023-05-19T11:50:43.558Z,999.17
2023-05-19T11:51:43.530Z,999.19
2023-05-19T11:52:43.512Z,999.15
2023-05-19T11:53:43.530Z,999.28
2023-05-19T11:54:43.507Z,999.20
2023-05-19T11:55:43.518Z,999.19
2023-05-19T11:56:43.491Z,999.21
2023-05-19T11:57:49.606Z,999.25
2023-05-19T11:58:45.486Z,999.20
2023-05-19T11:59:43.483Z,999.30
2023-05-19T12:00:43.494Z,999.18
2023-05-19T12:01:43.501Z,999.15
2023-05-19T12:02:43.549Z,999.11
2023-05-19T12:03:43.486Z,999.12
2023-05-19T12:04:43.478Z,999.05
2023-05-19T12:05:44.085Z,999.11
2023-05-19T12:06:43.519Z,999.15
2023-05-19T12:07:43.431Z,999.10
2023-05-19T12:08:43.429Z,999.20
2023-05-19T12:09:43.437Z,999.14
2023-05-19T12:10:43.446Z,999.14